Lowell, Massachusetts
Current Conditions -  °F | °C
As of 12:54 AM on Sunday 23 Nov 2014 (Local Time) from KLWM Reporting Station
Broken Clouds Broken Clouds  
Wind Chill: 34°   Ceiling: 12000
Heat Index: 41°   Visibility: 10mi
Dew Point: 21°   Wind: 13mph
Humidity: 45%   Direction: 230°SW
Pressure: 30.05"   Gusts: NA
Location:  42.65°N, 71.31°W
Report Text: KLWM 230554Z AUTO 23011KT 10SM BKN120 05/M06 A3005 RMK AO2 SLP177 T00501061 10050 20039 56001
Loading
Personal Weather Stations






























Interactive Weather Map New forecast layout! Learn more

10-Day Weather Forecast

Advertisements
Track Severe Weather on mobile